createdAt,value
2018-06-17T00:04:02.354Z,6
2018-06-17T00:09:57.358Z,7.28
2018-06-17T00:15:52.342Z,7.08
2018-06-17T00:21:47.408Z,6.57
2018-06-17T00:27:42.343Z,5.68
2018-06-17T00:33:37.388Z,6.05
2018-06-17T00:39:32.368Z,5.77
2018-06-17T00:45:27.373Z,6.38
2018-06-17T00:51:22.380Z,6.37
2018-06-17T00:57:17.388Z,6.37
2018-06-17T01:03:12.384Z,5.43
2018-06-17T01:09:07.392Z,5.3
2018-06-17T01:15:02.383Z,5.88
2018-06-17T01:20:57.386Z,5.75
2018-06-17T01:26:52.486Z,6.85
2018-06-17T01:32:47.394Z,5.9
2018-06-17T01:38:42.411Z,5.63
2018-06-17T01:44:37.435Z,5.26
2018-06-17T01:50:32.453Z,4.83
2018-06-17T01:56:27.433Z,5.36
2018-06-17T02:02:22.426Z,6.11
2018-06-17T02:08:17.475Z,5.83
2018-06-17T02:14:12.455Z,5.67
2018-06-17T02:20:07.497Z,6.33
2018-06-17T02:26:02.422Z,5.91
2018-06-17T02:31:57.423Z,5.38
2018-06-17T02:37:52.444Z,5.97
2018-06-17T02:43:47.442Z,5.68
2018-06-17T02:49:42.454Z,7.94
2018-06-17T02:55:37.465Z,6.37
2018-06-17T03:01:32.435Z,6.98
2018-06-17T03:07:27.457Z,6.18
2018-06-17T03:13:22.452Z,6.48
2018-06-17T03:19:17.484Z,6.08
2018-06-17T03:25:12.499Z,5.94
2018-06-17T03:31:07.488Z,5.64
2018-06-17T03:37:02.471Z,5.79
2018-06-17T03:42:57.527Z,6.26
2018-06-17T03:48:52.485Z,6.83
2018-06-17T03:54:47.500Z,6.25
2018-06-17T04:00:42.524Z,6.09
2018-06-17T04:06:37.496Z,6.42
2018-06-17T04:12:32.523Z,7.3
2018-06-17T04:18:27.524Z,7.25
2018-06-17T04:24:22.483Z,8.38
2018-06-17T04:30:17.496Z,7.8
2018-06-17T04:36:12.515Z,7.44
2018-06-17T04:42:07.496Z,7.53
2018-06-17T04:48:02.501Z,7.16
2018-06-17T04:53:57.510Z,7.7
2018-06-17T04:59:52.531Z,8.26
2018-06-17T05:05:47.510Z,8.57
2018-06-17T05:11:42.489Z,8.72
2018-06-17T05:17:37.508Z,7.6
2018-06-17T05:23:32.538Z,7.44
2018-06-17T05:29:27.620Z,7.49
2018-06-17T05:35:22.609Z,7.54
2018-06-17T05:41:17.569Z,8.53
2018-06-17T05:47:12.534Z,8.55
2018-06-17T05:53:07.542Z,9.01
2018-06-17T05:59:02.531Z,8.92
2018-06-17T06:04:57.605Z,8.96
2018-06-17T06:10:52.593Z,9.11
2018-06-17T06:16:47.535Z,9.73
2018-06-17T06:22:42.559Z,9.5
2018-06-17T06:28:37.612Z,9.36
2018-06-17T06:34:32.549Z,10.23
2018-06-17T06:40:27.549Z,9.1
2018-06-17T06:46:22.564Z,9.74
2018-06-17T06:52:17.580Z,8.94
2018-06-17T06:58:12.690Z,8.96
2018-06-17T07:04:07.589Z,8.85
2018-06-17T07:10:02.716Z,10.46
2018-06-17T07:15:57.615Z,9.52
2018-06-17T07:21:52.571Z,8.81
2018-06-17T07:27:47.627Z,9.57
2018-06-17T07:33:42.618Z,9
2018-06-17T07:39:37.622Z,6.85
2018-06-17T07:45:32.612Z,9.45
2018-06-17T07:51:27.623Z,9.57
2018-06-17T07:57:22.664Z,10.2
2018-06-17T08:03:17.598Z,10.2
2018-06-17T08:09:12.629Z,7.55
2018-06-17T08:15:07.636Z,7.42
2018-06-17T08:21:02.627Z,6.24
2018-06-17T08:26:57.656Z,6.31
2018-06-17T08:32:52.618Z,6.95
2018-06-17T08:38:47.665Z,6.7
2018-06-17T08:44:42.688Z,6.53
2018-06-17T08:50:37.623Z,6.23
2018-06-17T08:56:32.677Z,6.26
2018-06-17T09:02:27.632Z,7.55
2018-06-17T09:08:22.628Z,6.79
2018-06-17T09:14:17.680Z,5.85
2018-06-17T09:20:12.642Z,6.35
2018-06-17T09:26:07.650Z,5.74
2018-06-17T09:32:02.721Z,6.15
2018-06-17T09:37:57.715Z,5.82
2018-06-17T09:43:52.730Z,7.04
2018-06-17T09:49:47.719Z,6.93
2018-06-17T09:55:42.717Z,8.37
2018-06-17T10:01:37.704Z,7.67
2018-06-17T10:07:32.663Z,11.19
2018-06-17T10:13:27.695Z,9.77
2018-06-17T10:19:22.731Z,7.98
2018-06-17T10:25:17.691Z,7.99
2018-06-17T10:31:12.682Z,11.99
2018-06-17T10:37:07.713Z,8.52
2018-06-17T10:43:02.693Z,6.77
2018-06-17T10:48:57.758Z,7.42
2018-06-17T10:54:52.700Z,7.4
2018-06-17T11:00:47.699Z,17.21
2018-06-17T11:06:42.736Z,34.05
2018-06-17T11:12:37.754Z,29.77
2018-06-17T11:18:32.706Z,19.43
2018-06-17T11:24:27.737Z,19.31
2018-06-17T11:30:22.744Z,17.13
2018-06-17T11:36:17.745Z,15.89
2018-06-17T11:42:12.759Z,8.18
2018-06-17T11:48:07.784Z,11.36
2018-06-17T11:54:02.789Z,13.61
2018-06-17T11:59:57.761Z,14.09
2018-06-17T12:05:52.774Z,10.65
2018-06-17T12:11:47.802Z,9.85
2018-06-17T12:17:42.769Z,8.94
2018-06-17T12:23:37.774Z,5.71
2018-06-17T12:29:32.769Z,4.15
2018-06-17T12:35:27.788Z,3.68
2018-06-17T12:41:22.780Z,5.26
2018-06-17T12:47:17.803Z,7.1
2018-06-17T12:53:12.794Z,6.71
2018-06-17T12:59:07.795Z,6.07
2018-06-17T13:05:02.802Z,4.31
2018-06-17T13:10:57.775Z,5.27
2018-06-17T13:16:52.771Z,3.89
2018-06-17T13:22:47.769Z,4.29
2018-06-17T13:28:42.862Z,4.07
2018-06-17T13:34:37.832Z,4.5
2018-06-17T13:40:32.851Z,6.63
2018-06-17T13:46:27.853Z,6.09
2018-06-17T13:52:22.801Z,5.53
2018-06-17T13:58:17.825Z,7.92
2018-06-17T14:04:12.820Z,6.12
2018-06-17T14:10:07.814Z,6.24
2018-06-17T14:16:02.849Z,9.49
2018-06-17T14:21:57.807Z,6
2018-06-17T14:27:52.849Z,4.98
2018-06-17T14:33:47.844Z,6.51
2018-06-17T14:39:42.852Z,8.43
2018-06-17T14:45:37.887Z,6.58
2018-06-17T14:51:32.853Z,5.84
2018-06-17T14:57:27.939Z,6.39
2018-06-17T15:03:22.849Z,6.06
2018-06-17T15:09:17.871Z,6.23
2018-06-17T15:15:12.898Z,7.13
2018-06-17T15:21:07.877Z,6.12
2018-06-17T15:27:02.854Z,5.03
2018-06-17T15:32:57.872Z,5.76
2018-06-17T15:38:52.845Z,5.22
2018-06-17T15:44:47.901Z,5.74
2018-06-17T15:50:42.956Z,4.79
2018-06-17T15:56:37.867Z,6.43
2018-06-17T16:02:32.886Z,5.52
2018-06-17T16:08:27.877Z,4.93
2018-06-17T16:14:22.886Z,5.17
2018-06-17T16:20:17.907Z,4.63
2018-06-17T16:26:12.936Z,5.19
2018-06-17T16:32:07.919Z,6.44
2018-06-17T16:38:02.914Z,5.88
2018-06-17T16:43:57.942Z,4.84
2018-06-17T16:49:52.917Z,5.49
2018-06-17T16:55:47.911Z,5.14
2018-06-17T17:01:42.920Z,4.85
2018-06-17T17:07:37.968Z,4.66
2018-06-17T17:13:32.940Z,5.05
2018-06-17T17:19:27.933Z,5.89
2018-06-17T17:25:22.950Z,6.37
2018-06-17T17:31:17.968Z,5.54
2018-06-17T17:37:12.942Z,4.47
2018-06-17T17:43:07.967Z,5.37
2018-06-17T17:49:02.921Z,4.97
2018-06-17T17:54:57.958Z,7.11
2018-06-17T18:00:52.937Z,7.37
2018-06-17T18:06:47.954Z,3.99
2018-06-17T18:12:42.962Z,4.58
2018-06-17T18:18:37.971Z,6.41
2018-06-17T18:24:32.986Z,5.57
2018-06-17T18:30:27.986Z,4.8
2018-06-17T18:36:22.991Z,5.11
2018-06-17T18:42:17.992Z,5.4
2018-06-17T18:48:12.975Z,5.5
2018-06-17T18:54:08.002Z,5.63
2018-06-17T19:00:03.150Z,6.69
2018-06-17T19:05:57.979Z,6.1
2018-06-17T19:11:52.975Z,5.69
2018-06-17T19:17:48.049Z,5.84
2018-06-17T19:23:43.054Z,5.88
2018-06-17T19:29:38.053Z,6.33
2018-06-17T19:35:33.038Z,5.59
2018-06-17T19:41:28.002Z,6.19
2018-06-17T19:47:23.086Z,5.82
2018-06-17T19:53:18.029Z,5.35
2018-06-17T19:59:13.032Z,5.54
2018-06-17T20:05:08.008Z,5.55
2018-06-17T20:11:03.057Z,5.73
2018-06-17T20:16:58.048Z,5.85
2018-06-17T20:22:53.010Z,4.91
2018-06-17T20:28:48.043Z,5.6
2018-06-17T20:34:43.091Z,5.39
2018-06-17T20:40:38.072Z,5.43
2018-06-17T20:46:33.022Z,6.2
2018-06-17T20:52:28.070Z,6.55
2018-06-17T20:58:23.045Z,6.81
2018-06-17T21:04:18.075Z,6.47
2018-06-17T21:10:13.047Z,5.93
2018-06-17T21:16:08.094Z,6.69
2018-06-17T21:22:03.077Z,6.4
2018-06-17T21:27:58.087Z,6.9
2018-06-17T21:33:53.111Z,6.35
2018-06-17T21:39:48.071Z,6.04
2018-06-17T21:45:43.093Z,6.59
2018-06-17T21:51:38.143Z,6.4
2018-06-17T21:57:33.071Z,6.37
2018-06-17T22:03:28.069Z,6.61
2018-06-17T22:09:23.108Z,6.53
2018-06-17T22:15:18.072Z,6.83
2018-06-17T22:21:13.125Z,6.17
2018-06-17T22:27:08.144Z,5.96
2018-06-17T22:33:03.165Z,6.14
2018-06-17T22:38:58.134Z,6.29
2018-06-17T22:44:53.180Z,6.64
2018-06-17T22:50:48.147Z,7.07
2018-06-17T22:56:43.132Z,6.62
2018-06-17T23:02:38.139Z,6.65
2018-06-17T23:08:33.113Z,6.54
2018-06-17T23:14:28.141Z,6.16
2018-06-17T23:20:23.166Z,5.7
2018-06-17T23:26:18.133Z,6.2
2018-06-17T23:32:13.155Z,5.95
2018-06-17T23:38:08.119Z,5.55
2018-06-17T23:44:03.166Z,5.27
2018-06-17T23:49:58.147Z,5.91
2018-06-17T23:55:53.187Z,5.56
